Decoded Metar for LEGR (GRANADA in SPAIN) (IATA:GRX) | Meteo·Mobile Aviation Weather
aviador You're here:

LEGR Decoded Metar

GRANADA in SPAIN
Report Time2020-02-18 22:30:00
UTC Time2020-02-18 22:46:00
Flight Rules mvfr MVFR
WindVRB at 01 kt
Visibility9999 m
Phenomena:N/A
Clouds:Broken 027 Hf
Broken 035 Hf
Expected CloudBase > 1,200 ft AGL from Temp-Dew spread
Ceiling2,700 ft
Temp13°C (ISA +2)
Dew Point10°C (82% RH)
AAT12.7°C
QNH1029 hPa
Density Alt1,663 ft
Elevation1,834 ft
Report Wrong Elevation
Raw Report
LEGR 182230Z AUTO VRB01KT 9999 BKN027 BKN035 13/10 Q1029=

Extra information for LEGR:More info

Metar Taf Metar & Taf Last 4 Metars F.Rules Stats Wind Profile Meteogram Temp Stats Airport Information Weather charts Add Link Nearby VenuesMetar ALERT Operation Metar Decoded Social comments